createdAt,value
2018-07-25T00:02:25.050Z,91.20
2018-07-25T00:04:53.058Z,91.20
2018-07-25T00:07:21.052Z,91.30
2018-07-25T00:12:16.996Z,91.40
2018-07-25T00:14:45.000Z,91.00
2018-07-25T00:17:12.933Z,91.20
2018-07-25T00:19:40.922Z,91.30
2018-07-25T00:22:08.976Z,91.80
2018-07-25T00:24:37.517Z,91.90
2018-07-25T00:27:05.491Z,92.00
2018-07-25T00:29:33.527Z,92.20
2018-07-25T00:32:01.569Z,92.40
2018-07-25T00:34:29.573Z,92.60
2018-07-25T00:36:57.584Z,93.10
2018-07-25T00:39:25.563Z,92.90
2018-07-25T00:41:53.548Z,93.20
2018-07-25T00:44:21.681Z,93.10
2018-07-25T00:49:17.600Z,93.90
2018-07-25T00:51:45.626Z,94.30
2018-07-25T00:54:13.648Z,94.30
2018-07-25T00:56:41.617Z,94.80
2018-07-25T00:59:09.684Z,99.90
2018-07-25T01:01:37.758Z,95.30
2018-07-25T01:04:05.821Z,95.40
2018-07-25T01:06:33.861Z,95.20
2018-07-25T01:09:01.878Z,99.90
2018-07-25T01:11:29.839Z,95.50
2018-07-25T01:13:57.861Z,96.00
2018-07-25T01:16:25.838Z,95.70
2018-07-25T01:18:53.826Z,95.80
2018-07-25T01:21:21.838Z,96.00
2018-07-25T01:23:49.871Z,96.40
2018-07-25T01:26:17.914Z,96.60
2018-07-25T01:28:45.991Z,96.70
2018-07-25T01:31:14.009Z,97.10
2018-07-25T01:33:41.989Z,97.20
2018-07-25T01:36:10.002Z,97.90
2018-07-25T01:38:38.065Z,97.70
2018-07-25T01:41:06.031Z,97.40
2018-07-25T01:43:34.053Z,97.80
2018-07-25T01:46:02.027Z,97.50
2018-07-25T01:48:30.057Z,97.40
2018-07-25T01:50:58.334Z,97.90
2018-07-25T01:53:26.437Z,98.80
2018-07-25T01:55:54.424Z,99.90
2018-07-25T01:58:22.439Z,98.80
2018-07-25T02:00:50.474Z,98.70
2018-07-25T02:03:18.889Z,99.10
2018-07-25T02:05:47.073Z,99.60
2018-07-25T02:08:15.532Z,99.90
2018-07-25T02:10:46.438Z,99.90
2018-07-25T02:13:16.268Z,99.90
2018-07-25T02:15:44.776Z,99.90
2018-07-25T02:18:12.785Z,99.90
2018-07-25T02:20:40.812Z,99.90
2018-07-25T02:23:08.800Z,99.90
2018-07-25T02:30:33.540Z,99.90
2018-07-25T02:35:29.496Z,99.90
2018-07-25T02:37:57.509Z,99.90
2018-07-25T02:42:53.531Z,99.90
2018-07-25T02:45:21.561Z,99.90
2018-07-25T02:47:49.534Z,99.90
2018-07-25T02:50:17.597Z,99.90
2018-07-25T02:52:45.619Z,99.90
2018-07-25T02:55:13.616Z,99.90
2018-07-25T02:57:41.654Z,99.90
2018-07-25T03:00:09.721Z,99.90
2018-07-25T03:02:37.790Z,99.90
2018-07-25T03:05:05.986Z,99.90
2018-07-25T03:07:33.983Z,99.90
2018-07-25T03:10:02.054Z,99.90
2018-07-25T03:12:30.090Z,99.90
2018-07-25T03:14:58.088Z,99.90
2018-07-25T03:19:54.103Z,99.90
2018-07-25T03:22:22.076Z,99.90
2018-07-25T03:24:50.160Z,99.90
2018-07-25T03:27:18.257Z,99.90
2018-07-25T03:29:46.267Z,99.90
2018-07-25T03:32:14.282Z,99.90
2018-07-25T03:34:42.360Z,99.90
2018-07-25T03:37:10.444Z,99.90
2018-07-25T03:39:38.545Z,99.90
2018-07-25T03:42:06.715Z,99.90
2018-07-25T03:44:34.779Z,99.90
2018-07-25T03:47:02.841Z,99.90
2018-07-25T03:49:30.894Z,99.90
2018-07-25T03:51:58.904Z,99.90
2018-07-25T03:54:27.809Z,99.90
2018-07-25T03:56:55.865Z,99.90
2018-07-25T03:59:23.902Z,99.90
2018-07-25T04:01:51.955Z,99.90
2018-07-25T04:04:19.997Z,99.90
2018-07-25T04:09:16.087Z,99.90
2018-07-25T04:11:44.074Z,99.90
2018-07-25T04:14:12.071Z,99.90
2018-07-25T04:16:40.231Z,99.90
2018-07-25T04:19:08.264Z,99.90
2018-07-25T04:21:36.336Z,99.90
2018-07-25T04:24:04.477Z,99.90
2018-07-25T04:26:32.615Z,99.90
2018-07-25T04:29:01.880Z,99.90
2018-07-25T04:31:30.798Z,99.90
2018-07-25T04:33:59.830Z,99.90
2018-07-25T04:36:27.913Z,99.90
2018-07-25T04:38:55.912Z,99.90
2018-07-25T04:41:23.983Z,99.90
2018-07-25T04:43:52.054Z,99.90
2018-07-25T04:46:20.168Z,99.90
2018-07-25T04:48:48.186Z,99.90
2018-07-25T04:51:16.246Z,99.90
2018-07-25T04:53:44.348Z,99.90
2018-07-25T04:56:12.505Z,99.90
2018-07-25T04:58:40.424Z,99.90
2018-07-25T05:03:36.543Z,99.90
2018-07-25T05:06:04.590Z,99.90
2018-07-25T05:08:32.655Z,99.90
2018-07-25T05:11:00.763Z,99.90
2018-07-25T05:13:29.813Z,99.90
2018-07-25T05:15:59.247Z,99.90
2018-07-25T05:18:28.216Z,99.90
2018-07-25T05:20:57.024Z,99.90
2018-07-25T05:23:25.073Z,99.90
2018-07-25T05:26:09.382Z,99.90
2018-07-25T05:28:37.411Z,99.90
2018-07-25T05:31:05.474Z,99.90
2018-07-25T05:33:33.578Z,99.90
2018-07-25T05:38:29.591Z,99.90
2018-07-25T05:40:57.622Z,99.90
2018-07-25T05:43:25.697Z,99.90
2018-07-25T05:45:53.826Z,99.90
2018-07-25T05:50:49.880Z,99.90
2018-07-25T05:53:18.039Z,99.90
2018-07-25T05:55:46.165Z,99.90
2018-07-25T05:58:14.313Z,99.90
2018-07-25T06:00:42.335Z,99.90
2018-07-25T06:03:10.628Z,99.90
2018-07-25T06:05:38.624Z,99.90
2018-07-25T06:08:06.724Z,99.90
2018-07-25T06:10:34.772Z,99.90
2018-07-25T06:13:02.799Z,99.90
2018-07-25T06:15:30.888Z,99.90
2018-07-25T06:17:58.970Z,99.90
2018-07-25T06:20:27.018Z,99.90
2018-07-25T06:22:54.995Z,99.90
2018-07-25T06:27:51.004Z,99.90
2018-07-25T06:30:18.991Z,99.90
2018-07-25T06:32:47.020Z,99.90
2018-07-25T06:35:15.008Z,99.90
2018-07-25T06:37:43.194Z,99.90
2018-07-25T06:42:39.159Z,99.90
2018-07-25T06:45:07.143Z,99.90
2018-07-25T06:47:35.483Z,99.90
2018-07-25T06:50:04.338Z,99.90
2018-07-25T06:52:32.324Z,99.90
2018-07-25T06:55:00.444Z,99.90
2018-07-25T06:57:28.457Z,99.90
2018-07-25T06:59:56.478Z,99.90
2018-07-25T07:02:24.481Z,99.90
2018-07-25T07:04:52.457Z,99.70
2018-07-25T07:07:20.480Z,99.90
2018-07-25T07:09:48.476Z,99.90
2018-07-25T07:12:16.555Z,99.90
2018-07-25T07:14:53.605Z,99.90
2018-07-25T07:17:21.634Z,99.90
2018-07-25T07:19:49.592Z,99.80
2018-07-25T07:22:17.609Z,99.90
2018-07-25T07:24:45.629Z,99.60
2018-07-25T07:27:13.669Z,99.10
2018-07-25T07:29:41.740Z,98.70
2018-07-25T07:32:09.718Z,98.40
2018-07-25T07:34:37.702Z,98.20
2018-07-25T07:37:05.815Z,98.00
2018-07-25T07:39:33.836Z,98.90
2018-07-25T07:42:01.865Z,99.90
2018-07-25T07:44:29.947Z,99.40
2018-07-25T07:46:57.923Z,99.90
2018-07-25T07:49:25.911Z,99.90
2018-07-25T07:51:53.938Z,99.90
2018-07-25T07:54:21.915Z,99.90
2018-07-25T07:56:49.905Z,99.90
2018-07-25T07:59:17.948Z,99.90
2018-07-25T08:01:45.932Z,99.90
2018-07-25T08:04:13.883Z,99.90
2018-07-25T08:06:41.894Z,99.90
2018-07-25T08:09:11.726Z,99.90
2018-07-25T08:11:39.837Z,99.90
2018-07-25T08:14:07.843Z,99.90
2018-07-25T08:16:35.834Z,99.90
2018-07-25T08:19:03.778Z,99.90
2018-07-25T08:21:31.755Z,99.90
2018-07-25T08:23:59.698Z,99.90
2018-07-25T08:26:27.665Z,99.90
2018-07-25T08:28:55.675Z,99.90
2018-07-25T08:31:23.677Z,99.90
2018-07-25T08:33:51.649Z,99.90
2018-07-25T08:36:19.643Z,99.90
2018-07-25T08:38:47.614Z,99.90
2018-07-25T08:41:15.719Z,99.90
2018-07-25T08:43:43.572Z,99.90
2018-07-25T08:46:12.095Z,99.90
2018-07-25T08:48:40.174Z,99.90
2018-07-25T08:51:08.165Z,99.90
2018-07-25T08:53:36.774Z,99.90
2018-07-25T08:56:05.034Z,99.90
2018-07-25T08:58:33.009Z,99.90
2018-07-25T09:03:29.062Z,99.90
2018-07-25T09:05:57.040Z,99.90
2018-07-25T09:08:24.988Z,99.90
2018-07-25T09:10:52.922Z,99.90
2018-07-25T09:13:20.935Z,99.90
2018-07-25T09:15:48.851Z,99.80
2018-07-25T09:18:16.800Z,99.60
2018-07-25T09:20:44.787Z,99.00
2018-07-25T09:23:12.736Z,97.80
2018-07-25T09:25:40.793Z,97.70
2018-07-25T09:28:08.653Z,97.90
2018-07-25T09:30:36.616Z,97.30
2018-07-25T09:35:32.529Z,97.50
2018-07-25T09:38:00.505Z,97.40
2018-07-25T09:40:28.437Z,99.90
2018-07-25T09:42:56.409Z,97.20
2018-07-25T09:45:24.320Z,97.00
2018-07-25T09:47:52.368Z,96.80
2018-07-25T09:50:20.344Z,96.60
2018-07-25T09:52:48.313Z,95.70
2018-07-25T09:57:44.292Z,99.30
2018-07-25T10:00:31.757Z,99.90
2018-07-25T10:02:59.772Z,95.60
2018-07-25T10:07:55.660Z,94.40
2018-07-25T10:10:23.628Z,94.60
2018-07-25T10:12:51.558Z,94.80
2018-07-25T10:15:19.512Z,94.00
2018-07-25T10:22:43.329Z,94.60
2018-07-25T10:25:11.337Z,94.20
2018-07-25T10:27:39.230Z,93.90
2018-07-25T10:30:07.160Z,93.60
2018-07-25T10:32:35.124Z,93.30
2018-07-25T10:35:03.102Z,93.60
2018-07-25T10:37:31.052Z,93.00
2018-07-25T10:39:59.016Z,92.80
2018-07-25T10:42:27.017Z,92.90
2018-07-25T10:44:54.940Z,92.20
2018-07-25T10:47:22.932Z,91.40
2018-07-25T10:49:50.879Z,91.10
2018-07-25T10:52:18.837Z,90.70
2018-07-25T10:54:46.917Z,90.20
2018-07-25T10:57:14.864Z,90.50
2018-07-25T11:02:11.233Z,87.70
2018-07-25T11:04:39.131Z,93.20
2018-07-25T11:07:07.125Z,87.50
2018-07-25T11:09:35.132Z,88.40
2018-07-25T11:14:31.050Z,87.50
2018-07-25T11:16:59.017Z,87.20
2018-07-25T11:21:54.943Z,88.00
2018-07-25T11:26:50.858Z,86.20
2018-07-25T11:29:18.799Z,90.20
2018-07-25T11:31:46.804Z,90.50
2018-07-25T11:34:14.755Z,90.00
2018-07-25T11:36:42.696Z,90.20
2018-07-25T11:39:11.954Z,90.10
2018-07-25T11:41:39.920Z,90.20
2018-07-25T11:46:35.873Z,90.20
2018-07-25T11:49:03.899Z,90.10
2018-07-25T11:51:31.828Z,89.10
2018-07-25T11:53:59.814Z,88.60
2018-07-25T11:56:27.769Z,89.30
2018-07-25T11:58:55.721Z,90.30
2018-07-25T12:01:23.758Z,89.70
2018-07-25T12:03:51.648Z,86.60
2018-07-25T12:06:19.588Z,84.10
2018-07-25T12:08:47.583Z,84.10
2018-07-25T12:16:11.447Z,85.50
2018-07-25T12:18:39.428Z,84.60
2018-07-25T12:23:35.671Z,80.70
2018-07-25T12:30:59.999Z,78.50
2018-07-25T12:35:55.861Z,77.00
2018-07-25T12:38:23.862Z,77.20
2018-07-25T12:40:51.944Z,76.80
2018-07-25T12:43:19.892Z,75.90
2018-07-25T12:45:47.890Z,84.40
2018-07-25T12:48:15.886Z,75.10
2018-07-25T12:50:43.810Z,77.60
2018-07-25T12:53:11.796Z,78.60
2018-07-25T12:55:39.724Z,75.30
2018-07-25T12:58:07.720Z,73.00
2018-07-25T13:00:35.695Z,73.20
2018-07-25T13:03:03.719Z,73.40
2018-07-25T13:05:31.673Z,71.00
2018-07-25T13:07:59.643Z,70.10
2018-07-25T13:10:27.647Z,69.40
2018-07-25T13:12:55.620Z,68.80
2018-07-25T13:15:23.628Z,70.20
2018-07-25T13:20:19.522Z,65.00
2018-07-25T13:22:47.506Z,72.40
2018-07-25T13:25:15.611Z,63.50
2018-07-25T13:32:39.552Z,62.30
2018-07-25T13:35:07.534Z,71.60
2018-07-25T13:37:35.536Z,63.20
2018-07-25T13:40:03.609Z,61.40
2018-07-25T13:47:27.503Z,60.80
2018-07-25T13:49:55.461Z,61.20
2018-07-25T13:52:23.449Z,59.60
2018-07-25T13:57:19.410Z,61.60
2018-07-25T13:59:47.400Z,59.00
2018-07-25T14:02:15.351Z,58.90
2018-07-25T14:04:43.281Z,58.40
2018-07-25T14:07:11.580Z,57.60
2018-07-25T14:12:07.728Z,56.90
2018-07-25T14:14:35.646Z,55.80
2018-07-25T14:17:03.589Z,55.90
2018-07-25T14:19:31.549Z,56.20
2018-07-25T14:21:59.515Z,55.10
2018-07-25T14:24:27.549Z,55.00
2018-07-25T14:26:55.410Z,57.40
2018-07-25T14:31:51.494Z,58.00
2018-07-25T14:34:19.484Z,57.80
2018-07-25T14:36:47.446Z,58.30
2018-07-25T14:39:15.382Z,59.60
2018-07-25T14:41:43.350Z,57.50
2018-07-25T14:44:11.337Z,57.60
2018-07-25T14:46:39.312Z,59.30
2018-07-25T14:49:07.307Z,62.40
2018-07-25T14:51:35.296Z,60.80
2018-07-25T14:54:03.297Z,61.50
2018-07-25T14:56:31.270Z,51.20
2018-07-25T14:58:59.819Z,50.20
2018-07-25T15:01:28.237Z,47.60
2018-07-25T15:03:56.472Z,43.80
2018-07-25T15:08:52.709Z,39.00
2018-07-25T15:13:48.719Z,38.10
2018-07-25T15:16:16.987Z,36.70
2018-07-25T15:18:44.989Z,39.00
2018-07-25T15:21:13.353Z,45.40
2018-07-25T15:23:59.070Z,39.90
2018-07-25T15:26:28.142Z,42.30
2018-07-25T15:31:26.066Z,41.40
2018-07-25T15:33:54.203Z,42.60
2018-07-25T15:39:14.427Z,43.80
2018-07-25T15:41:43.683Z,44.20
2018-07-25T15:44:11.628Z,44.70
2018-07-25T15:46:40.057Z,44.60
2018-07-25T15:54:05.181Z,43.90
2018-07-25T15:59:01.521Z,43.60
2018-07-25T16:01:29.482Z,43.10
2018-07-25T16:03:57.410Z,43.10
2018-07-25T16:06:25.357Z,44.10
2018-07-25T16:08:53.722Z,43.50
2018-07-25T16:13:49.657Z,42.50
2018-07-25T16:16:18.224Z,43.10
2018-07-25T16:21:14.441Z,42.00
2018-07-25T16:23:42.449Z,42.70
2018-07-25T16:33:34.653Z,42.70
2018-07-25T16:36:02.640Z,51.60
2018-07-25T16:40:58.569Z,44.30
2018-07-25T16:43:26.509Z,45.00
2018-07-25T16:45:54.493Z,44.90
2018-07-25T16:48:22.437Z,46.60
2018-07-25T16:53:18.348Z,47.40
2018-07-25T16:55:46.276Z,47.80
2018-07-25T16:58:14.199Z,47.80
2018-07-25T17:00:43.057Z,47.90
2018-07-25T17:03:11.020Z,48.30
2018-07-25T17:05:38.979Z,48.30
2018-07-25T17:08:06.985Z,57.70
2018-07-25T17:13:02.880Z,49.00
2018-07-25T17:15:30.883Z,48.80
2018-07-25T17:17:58.805Z,49.10
2018-07-25T17:20:26.786Z,49.50
2018-07-25T17:25:23.039Z,49.50
2018-07-25T17:27:51.208Z,49.80
2018-07-25T17:30:19.192Z,59.30
2018-07-25T17:32:47.149Z,49.10
2018-07-25T17:35:15.161Z,48.90
2018-07-25T17:37:43.075Z,57.70
2018-07-25T17:40:11.020Z,48.50
2018-07-25T17:42:38.993Z,47.70
2018-07-25T17:45:09.379Z,47.40
2018-07-25T17:50:06.065Z,48.20
2018-07-25T17:52:34.033Z,48.20
2018-07-25T17:55:02.021Z,48.30
2018-07-25T17:57:29.958Z,47.80
2018-07-25T17:59:57.926Z,47.80
2018-07-25T18:02:25.918Z,48.40
2018-07-25T18:04:53.916Z,48.90
2018-07-25T18:07:21.871Z,49.80
2018-07-25T18:09:49.835Z,50.70
2018-07-25T18:12:17.785Z,51.40
2018-07-25T18:14:45.794Z,61.60
2018-07-25T18:17:13.764Z,51.80
2018-07-25T18:19:42.305Z,51.80
2018-07-25T18:22:10.273Z,51.90
2018-07-25T18:24:38.233Z,52.10
2018-07-25T18:27:06.222Z,52.50
2018-07-25T18:29:34.208Z,52.60
2018-07-25T18:32:02.176Z,52.90
2018-07-25T18:34:30.142Z,54.10
2018-07-25T18:36:58.114Z,63.90
2018-07-25T18:39:28.831Z,56.00
2018-07-25T18:41:56.784Z,57.10
2018-07-25T18:44:24.752Z,67.50
2018-07-25T18:46:52.684Z,59.00
2018-07-25T18:51:48.574Z,60.40
2018-07-25T18:54:16.547Z,60.90
2018-07-25T18:56:45.128Z,71.60
2018-07-25T18:59:13.098Z,62.30
2018-07-25T19:01:41.102Z,63.30
2018-07-25T19:04:09.037Z,71.80
2018-07-25T19:06:39.825Z,73.20
2018-07-25T19:09:17.724Z,63.90
2018-07-25T19:11:46.179Z,63.70
2018-07-25T19:17:18.307Z,65.10
2018-07-25T19:19:48.505Z,70.90
2018-07-25T19:24:44.568Z,65.60
2018-07-25T19:27:12.522Z,66.10
2018-07-25T19:29:40.463Z,66.90
2018-07-25T19:37:04.316Z,68.80
2018-07-25T19:39:38.355Z,68.60
2018-07-25T19:42:08.152Z,79.00
2018-07-25T19:44:36.206Z,69.30
2018-07-25T19:47:04.550Z,70.10
2018-07-25T19:49:32.945Z,70.20
2018-07-25T19:52:01.275Z,71.00
2018-07-25T19:54:29.341Z,79.70
2018-07-25T19:56:57.267Z,80.60
2018-07-25T19:59:25.267Z,71.10
2018-07-25T20:01:53.273Z,72.20
2018-07-25T20:04:22.111Z,72.00
2018-07-25T20:06:50.087Z,72.10
2018-07-25T20:09:18.104Z,82.10
2018-07-25T20:11:46.063Z,72.90
2018-07-25T20:14:32.253Z,73.40
2018-07-25T20:21:56.196Z,75.00
2018-07-25T20:24:24.132Z,75.40
2018-07-25T20:26:52.105Z,75.50
2018-07-25T20:29:20.120Z,75.80
2018-07-25T20:31:48.083Z,77.10
2018-07-25T20:34:16.035Z,77.10
2018-07-25T20:36:44.049Z,77.50
2018-07-25T20:41:40.887Z,78.80
2018-07-25T20:44:09.915Z,79.40
2018-07-25T20:46:37.879Z,90.10
2018-07-25T20:51:34.257Z,78.60
2018-07-25T20:54:02.345Z,78.60
2018-07-25T20:56:30.288Z,79.30
2018-07-25T20:58:58.355Z,80.00
2018-07-25T21:01:26.405Z,79.90
2018-07-25T21:06:22.314Z,78.70
2018-07-25T21:08:50.282Z,77.90
2018-07-25T21:11:18.329Z,76.50
2018-07-25T21:13:46.339Z,87.30
2018-07-25T21:16:14.282Z,88.60
2018-07-25T21:18:42.248Z,87.40
2018-07-25T21:21:10.310Z,86.90
2018-07-25T21:28:34.240Z,77.80
2018-07-25T21:31:02.194Z,78.30
2018-07-25T21:33:30.278Z,77.30
2018-07-25T21:35:58.289Z,76.80
2018-07-25T21:38:26.235Z,77.10
2018-07-25T21:43:22.194Z,77.00
2018-07-25T21:45:50.168Z,77.60
2018-07-25T21:48:18.174Z,78.50
2018-07-25T21:50:46.196Z,78.70
2018-07-25T21:53:14.165Z,78.90
2018-07-25T21:55:42.121Z,78.90
2018-07-25T22:00:53.256Z,79.30
2018-07-25T22:03:21.336Z,79.00
2018-07-25T22:05:49.285Z,79.50
2018-07-25T22:08:18.062Z,79.90
2018-07-25T22:10:46.076Z,80.20
2018-07-25T22:13:14.130Z,80.30
2018-07-25T22:15:42.154Z,80.10
2018-07-25T22:18:10.157Z,90.80
2018-07-25T22:20:38.093Z,80.60
2018-07-25T22:23:06.025Z,81.50
2018-07-25T22:28:02.004Z,82.70
2018-07-25T22:30:29.979Z,82.80
2018-07-25T22:32:57.980Z,83.20
2018-07-25T22:35:25.925Z,83.60
2018-07-25T22:37:53.919Z,83.50
2018-07-25T22:40:21.857Z,83.50
2018-07-25T22:42:49.800Z,83.20
2018-07-25T22:45:17.730Z,83.60
2018-07-25T22:47:45.725Z,84.00
2018-07-25T22:52:41.616Z,84.60
2018-07-25T22:55:09.599Z,84.60
2018-07-25T22:57:37.655Z,85.30
2018-07-25T23:00:06.448Z,85.50
2018-07-25T23:02:34.438Z,85.50
2018-07-25T23:07:30.393Z,85.40
2018-07-25T23:12:26.277Z,85.60
2018-07-25T23:14:54.247Z,85.80
2018-07-25T23:17:22.227Z,93.40
2018-07-25T23:19:50.220Z,86.00
2018-07-25T23:22:18.181Z,86.80
2018-07-25T23:24:46.177Z,87.60
2018-07-25T23:27:14.164Z,87.10
2018-07-25T23:29:42.080Z,87.50
2018-07-25T23:32:10.060Z,87.50
2018-07-25T23:34:37.990Z,87.40
2018-07-25T23:37:06.140Z,88.10
2018-07-25T23:39:34.121Z,87.80
2018-07-25T23:42:02.073Z,87.50
2018-07-25T23:44:30.031Z,88.70
2018-07-25T23:46:57.989Z,89.10
2018-07-25T23:49:25.954Z,89.30
2018-07-25T23:54:21.893Z,90.00
2018-07-25T23:56:49.922Z,90.20
2018-07-25T23:59:17.858Z,90.10
